AirNav   Duncan Aviation - Near you to keep you flying
 
 673 users online  

24AL Toth Stagefield Army Heliport
Fort Rucker/Dothan, Alabama, USA

GOING TO FORT RUCKER/DOTHAN?


FAA INFORMATION EFFECTIVE 08 SEPTEMBER 2022

Location

FAA Identifier: 24AL
Lat/Long: 31-13-32.5500N 085-33-41.7400W
31-13.542500N 085-33.695667W
31.2257083,-85.5615944
(estimated)
Elevation: 318 ft. / 97 m (estimated)
Variation: 02W (2000)
From city: 7 miles W of central business district of the associated city
Time zone: UTC -5 (UTC -6 during Standard Time)
Zip code: 36352

Heliport Operations

Heliport use: Private use. Permission required prior to landing
Activation date: 05/2002
Control tower: no
ARTCC: JACKSONVILLE CENTER
FSS: ANNISTON FLIGHT SERVICE STATION
NOTAMs facility: OZR (NOTAM-D service available)
Attendance: ATTENDED DURG SKED TRNG
FOR TRNG DAYS/HRS CTC AT&A OFFICER AT 334-255-9764.
Segmented circle: no

Heliport Communications

OPS: 126.2
WX ASOS at DHN (8 nm NE): PHONE 334-983-5999
WX AWOS-3PT at HDL (15 nm NE): 119.575 (334-693-0508)
WX AWOS-3PT at EDN (18 nm W): 118.9 (334-347-3524)

Nearby radio navigation aids

VOR radial/distance  VOR name  Freq  Var
RRSr240/7.6WIREGRASS VORTAC111.6002E
OZRr110/8.8CAIRNS VOR/DME111.2003W
HEYr155/(10.1)HANCHEY VOR110.6003W
EDNr107/(18.0)ENTERPRISE VOR116.6003W
MAIr320/34.7MARIANNA VORTAC114.0000E

 
NDB name  Hdg/Dist  Freq  Var  ID
HANCHEY155/10.222103WHYE .... -.-- .
LOWE134/12.426903WLOR .-.. --- .-.
RUCKR093/13.021203WOZ --- --..
BOLL WEEVIL111/22.635203WBVG -... ...- --.
SOYYA323/27.432902WSMY ... -- -.--

Heliport Services

Runway Information

Helipad H1

Dimensions: 1600 x 75 ft. / 488 x 23 m
Surface: asphalt
Traffic pattern: leftleft

Helipad H2

Dimensions: 1600 x 75 ft. / 488 x 23 m
Surface: asphalt
Traffic pattern: leftleft

Helipad H3

Dimensions: 1600 x 75 ft. / 488 x 23 m
Surface: asphalt
Traffic pattern: leftleft

Helipad H4

Dimensions: 1600 x 75 ft. / 488 x 23 m
Surface: asphalt
Traffic pattern: leftleft

Helipad H5

Dimensions: 1600 x 75 ft. / 488 x 23 m
Surface: asphalt
Traffic pattern: leftleft

Heliport Ownership and Management from official FAA records

Ownership: U.S. Army
Owner: US ARMY AVIATION CTR & FORT RUCKER
NOVOSEL ST
FORT RUCKER, AL 36362
Phone 334-255-9764
Manager: JACK A HOLMES
USAACE G3 AIR,
FORT RUCKER, AL 36362
Phone 334-255-9764

Additional Remarks

FOR CD CTC CAIRNS APCH AT 334-255-8402 OR 334-255-8460, WHEN APCH CLSD CTC JACKSONVILLE ARTCC AT 904-845-1592.

Instrument Procedures

There are no published instrument procedures at 24AL.

Some nearby airports with instrument procedures:

KDHN - Dothan Regional Airport (8 nm NE)
KOZR - Cairns Army Airfield (Fort Rucker) (8 nm W)
KHEY - Hanchey Army Heliport (Fort Rucker) (9 nm NW)
KLOR - Lowe Army Heliport (Fort Rucker) (12 nm NW)
71J - Ozark/Blackwell Field Airport (13 nm N)
KHDL - Headland Municipal Airport (15 nm NE)
KEDN - Enterprise Municipal Airport (18 nm W)
33J - Geneva Municipal Airport (19 nm SW)
 
Loc | Ops | Rwys | IFR | FBO | Links
Com | Nav | Svcs | Stats | Notes
Area around 24AL (Toth Stagefield Army Heliport)
 
Road maps at: MapQuest Bing Google
 
Aerial photo
No photo
 
Sectional chart

 
Airport distance calculator
Flying to Toth Stagefield Army Heliport? Find the distance to fly.

From to 24AL

Sunrise and sunset
Times for 04-Oct-2022
 Local
(UTC-5)
 Zulu
(UTC)
Morning civil twilight06:1511:15
Sunrise06:3911:39
Sunset18:2323:23
Evening civil twilight18:4723:47

Current date and time
Zulu (UTC)  04-Oct-2022 09:13:41
Local (UTC-5)  04-Oct-2022 04:13:41
 
METAR
KDHN 
8nm NE 
040853Z AUTO 00000KT 10SM CLR 12/11 A3011 RMK AO2 SLP193 T01170106 58005
KHEY 
9nm NW 
040855Z AUTO 00000KT 10SM CLR 13/12 A3006 RMK AO2 SLP180 T01290121 58003
KOZR 
9nm NW 
040855Z AUTO 03003KT 10SM CLR 12/11 A3007 RMK AO2 SLP183 T01220106 58004
KLOR 
12nm NW 
040855Z AUTO 00000KT 10SM CLR 11/11 A3008 RMK AO2 SLP169 T01140111 57003
KHDL 
15nm NE 
040855Z AUTO 00000KT 10SM CLR 11/11 A3008 RMK AO2 TSNO
KSXS 
17nm NW 
040855Z AUTO 00000KT 10SM CLR 14/12 A3007 RMK AO2 SLP182 T01360122 58001
KEDN 
18nm W 
040855Z AUTO 00000KT 10SM CLR 13/12 A3008 RMK AO2 T01330115
TAF
KDHN 
8nm NE 
040520Z 0406/0506 05005KT P6SM FEW250= TAF KAPF 040520Z 0406/0506 VRB04KT P6SM FEW040 SCT150 FM041300 03008KT P6SM FEW035 SCT200 FM041800 34009KT P6SM FEW035 SCT050 FM050100 VRB05KT P6SM FEW030 AMD NOT SKED
KOZR 
9nm NW 
040000Z 0400/0506 05006KT 9999 FEW030 QNH3000INS BECMG 0416/0417 03007KT 9999 SCT050 QNH3003INS TX27/0420Z TN12/0411Z
NOTAMs
Click for the latest NOTAMs
NOTAMs are issued by the DoD/FAA and will open in a separate window not controlled by AirNav.

 

 
 

Would you like to see your business listed on this page?

 If your business provides an interesting product or service to pilots, flight crews, aircraft, or users of the Toth Stagefield Army Heliport, you should consider listing it here.  To start the listing process, click on the button below
 
Add a business
 

Other Pages about Toth Stagefield Army Heliport

Update a link
 
Copyright © AirNav, LLC. All rights reserved. Privacy Policy  Contact